Time;durP1;ratioP1;P1;durP2;ratioP2;P2;SDS_P1;SDS_P2;PMS_P1;PMS_P2;Temp;Humidity;BMP_temperature;BMP_pressure;BME280_temperature;BME280_humidity;BME280_pressure;Samples;Min_cycle;Max_cycle;Signal;HPM_P1;HPM_P2
2022/10/14 00:01:31;;;;;;;;;34.25;32.00;;;;;17.25;60.81;99650.47;5049245;28;8863;-82
2022/10/14 00:04:08;;;;;;;;;33.25;31.25;;;;;17.23;60.77;99656.69;5051298;28;8875;-78
2022/10/14 00:06:38;;;;;;;;;34.75;31.25;;;;;17.27;60.35;99653.06;5066841;28;8862;-79
2022/10/14 00:09:09;;;;;;;;;34.00;32.25;;;;;17.30;60.64;99653.88;5067015;28;8885;-77
2022/10/14 00:11:38;;;;;;;;;41.75;33.50;;;;;17.37;60.11;99648.41;5050325;28;8847;-78
2022/10/14 00:14:11;;;;;;;;;36.00;33.00;;;;;17.43;59.92;99645.59;5049731;28;8902;-79
2022/10/14 00:16:42;;;;;;;;;33.50;31.00;;;;;17.43;59.71;99643.84;5016148;28;8890;-81
2022/10/14 00:19:13;;;;;;;;;33.75;31.25;;;;;17.39;59.90;99647.50;5066613;28;9012;-81
2022/10/14 00:21:44;;;;;;;;;33.20;30.80;;;;;17.47;59.73;99639.38;5049891;28;8836;-77
2022/10/14 00:24:16;;;;;;;;;32.40;31.80;;;;;17.46;59.71;99635.84;5017852;28;8857;-82
2022/10/14 00:26:45;;;;;;;;;33.75;31.50;;;;;17.50;59.55;99636.63;5049412;28;9002;-79
2022/10/14 00:29:17;;;;;;;;;36.50;29.25;;;;;17.52;59.19;99630.44;4997969;28;8857;-79
2022/10/14 00:31:47;;;;;;;;;36.00;31.50;;;;;17.55;59.07;99624.19;5048182;28;8869;-78
2022/10/14 00:34:17;;;;;;;;;28.40;24.40;;;;;17.57;59.29;99626.78;5046918;28;8937;-80
2022/10/14 00:36:46;;;;;;;;;32.25;31.00;;;;;17.50;59.36;99632.25;5031699;28;8895;-80
2022/10/14 00:39:19;;;;;;;;;37.00;33.00;;;;;17.54;58.87;99618.06;5032162;28;8841;-79
2022/10/14 00:41:47;;;;;;;;;37.00;32.75;;;;;17.44;59.81;99619.22;5032207;28;8885;-79
2022/10/14 00:44:53;;;;;;;;;40.75;34.00;;;;;17.41;59.83;99614.03;5015290;28;8865;-80
2022/10/14 00:47:22;;;;;;;;;35.75;32.00;;;;;17.35;60.22;99614.19;5048395;28;8842;-80
2022/10/14 00:49:52;;;;;;;;;41.50;35.00;;;;;17.29;60.28;99623.13;5046827;28;8848;-78
2022/10/14 00:52:23;;;;;;;;;43.00;37.25;;;;;17.30;60.20;99610.84;5047681;28;8891;-80
2022/10/14 00:54:57;;;;;;;;;44.25;38.00;;;;;17.13;60.78;99612.13;5046445;28;8970;-81
2022/10/14 00:57:27;;;;;;;;;39.50;36.00;;;;;17.15;60.66;99615.59;5029536;28;9691;-79
2022/10/14 01:00:06;;;;;;;;;45.75;37.75;;;;;17.00;61.35;99612.50;5029771;28;8854;-80
2022/10/14 01:02:35;;;;;;;;;40.75;36.50;;;;;17.03;61.33;99607.13;4996577;28;8980;-79
2022/10/14 01:05:08;;;;;;;;;40.50;34.00;;;;;17.06;61.08;99604.44;5028904;28;8875;-78
2022/10/14 01:07:46;;;;;;;;;44.50;36.25;;;;;16.90;61.49;99604.84;5029484;28;9011;-79
2022/10/14 01:10:24;;;;;;;;;39.50;34.25;;;;;16.99;61.15;99603.72;5029953;28;8897;-80
2022/10/14 01:13:04;;;;;;;;;34.50;31.25;;;;;16.99;61.17;99600.22;5046198;28;8959;-78
2022/10/14 01:15:41;;;;;;;;;38.50;34.00;;;;;16.98;61.34;99591.47;4997877;28;8884;-81
2022/10/14 01:18:19;;;;;;;;;31.75;31.75;;;;;16.96;61.55;99593.28;5046518;28;8851;-81
2022/10/14 01:21:11;;;;;;;;;32.75;31.50;;;;;16.94;61.42;99598.56;5012368;28;8866;-76
2022/10/14 01:24:18;;;;;;;;;36.25;32.00;;;;;16.87;61.69;99591.72;4951760;28;8906;-77
2022/10/14 01:26:59;;;;;;;;;34.75;31.25;;;;;16.88;61.63;99589.94;4955656;28;8878;-78
2022/10/14 01:29:58;;;;;;;;;36.25;33.50;;;;;16.83;61.75;99586.59;4987749;28;8901;-77
2022/10/14 01:32:30;;;;;;;;;33.50;31.75;;;;;16.73;61.67;99584.16;5022613;28;8902;-76
2022/10/14 01:35:06;;;;;;;;;26.50;24.25;;;;;16.73;61.87;99585.94;5001094;28;8902;-79
2022/10/14 01:37:39;;;;;;;;;33.25;30.25;;;;;16.70;61.87;99583.38;4994876;28;8865;-77
2022/10/14 01:40:15;;;;;;;;;33.75;31.75;;;;;16.77;61.57;99580.53;4908999;28;10165;-77
2022/10/14 01:42:46;;;;;;;;;37.50;31.25;;;;;16.71;62.09;99582.44;4980832;28;8897;-78
2022/10/14 01:45:21;;;;;;;;;32.25;30.25;;;;;16.71;62.07;99580.69;4990453;28;8931;-79
2022/10/14 01:47:51;;;;;;;;;31.25;30.50;;;;;16.63;62.50;99587.91;5006800;28;8874;-78
2022/10/14 01:50:23;;;;;;;;;28.75;26.50;;;;;16.58;62.59;99576.66;4970981;28;8908;-78
2022/10/14 01:52:59;;;;;;;;;29.40;28.60;;;;;16.61;62.34;99584.44;4967033;28;9693;-78
2022/10/14 01:55:33;;;;;;;;;26.80;24.00;;;;;16.64;61.97;99578.25;4984097;28;8927;-82
2022/10/14 01:58:04;;;;;;;;;34.00;32.75;;;;;16.56;62.10;99581.94;4970048;28;8896;-78
2022/10/14 02:00:34;;;;;;;;;29.00;26.60;;;;;16.60;62.22;99584.47;4988033;28;8962;-80
2022/10/14 02:03:03;;;;;;;;;37.50;33.50;;;;;16.64;62.01;99576.47;5027122;28;8844;-79
2022/10/14 02:05:39;;;;;;;;;28.80;28.20;;;;;16.63;61.92;99573.88;5046082;28;9004;-77
2022/10/14 02:08:13;;;;;;;;;41.75;35.25;;;;;16.67;62.05;99563.25;5029393;28;8908;-78
2022/10/14 02:10:56;;;;;;;;;33.75;31.00;;;;;16.72;61.97;99568.38;4996597;28;8893;-79
2022/10/14 02:13:44;;;;;;;;;34.50;32.25;;;;;16.67;61.75;99568.53;5028763;28;8882;-78
2022/10/14 02:16:23;;;;;;;;;31.80;29.60;;;;;16.59;62.49;99574.88;5045877;28;8897;-77
2022/10/14 02:19:01;;;;;;;;;31.25;30.50;;;;;16.52;62.30;99568.88;5012952;28;8866;-78
2022/10/14 02:21:36;;;;;;;;;36.50;32.00;;;;;16.50;62.50;99565.41;5049046;28;8955;-78
2022/10/14 02:24:23;;;;;;;;;32.60;30.40;;;;;16.57;61.78;99569.63;5049388;28;9060;-79
2022/10/14 02:26:55;;;;;;;;;30.50;28.75;;;;;16.48;62.22;99554.06;5031583;28;8884;-80
2022/10/14 02:29:27;;;;;;;;;31.25;30.00;;;;;16.46;62.20;99566.41;5034060;28;8849;-81
2022/10/14 02:32:00;;;;;;;;;31.40;29.20;;;;;16.53;61.76;99562.72;5033808;28;8880;-77
2022/10/14 02:34:29;;;;;;;;;30.60;28.20;;;;;16.53;62.08;99562.72;5050846;28;8841;-81
2022/10/14 02:36:59;;;;;;;;;31.40;29.80;;;;;16.52;61.57;99558.34;5052802;28;8869;-80
2022/10/14 02:39:36;;;;;;;;;32.00;30.75;;;;;16.52;61.72;99569.75;5018590;28;8845;-78
2022/10/14 02:42:06;;;;;;;;;34.00;31.00;;;;;16.45;61.68;99562.91;5052219;28;8857;-81
2022/10/14 02:44:35;;;;;;;;;30.40;29.80;;;;;16.49;61.50;99571.59;5048937;28;8965;-80
2022/10/14 02:47:05;;;;;;;;;36.40;30.80;;;;;16.47;61.81;99565.50;5000009;28;8865;-78
2022/10/14 02:49:33;;;;;;;;;32.80;26.40;;;;;16.44;61.43;99565.56;5049563;28;9750;-78
2022/10/14 02:52:02;;;;;;;;;30.20;29.80;;;;;16.53;61.47;99565.34;5032422;28;8947;-78
2022/10/14 02:54:31;;;;;;;;;32.00;31.40;;;;;16.51;61.44;99569.78;5015392;28;8947;-79
2022/10/14 02:57:00;;;;;;;;;33.20;31.80;;;;;16.55;61.20;99568.81;5032059;28;8889;-78
2022/10/14 02:59:29;;;;;;;;;33.75;29.75;;;;;16.49;61.37;99569.81;4989186;28;8825;-78
2022/10/14 03:01:58;;;;;;;;;28.50;26.75;;;;;16.56;60.98;99568.78;4988919;28;8959;-78
2022/10/14 03:04:29;;;;;;;;;32.00;30.75;;;;;16.47;61.38;99568.16;4989343;28;8888;-79
2022/10/14 03:06:58;;;;;;;;;35.00;31.00;;;;;16.50;61.25;99568.94;4989117;28;8991;-82
2022/10/14 03:09:26;;;;;;;;;40.50;32.25;;;;;16.57;61.09;99569.63;4989425;28;8880;-78
2022/10/14 03:11:56;;;;;;;;;36.50;34.50;;;;;16.61;61.03;99568.66;4989266;28;8838;-80
2022/10/14 03:14:25;;;;;;;;;31.00;30.40;;;;;16.71;60.20;99575.44;4956844;28;8874;-80
2022/10/14 03:16:54;;;;;;;;;32.00;31.25;;;;;16.77;59.91;99566.50;4998888;28;8938;-81
2022/10/14 03:19:25;;;;;;;;;32.00;30.60;;;;;16.67;59.92;99565.00;5048720;28;8860;-79
2022/10/14 03:21:57;;;;;;;;;28.80;27.40;;;;;16.68;60.56;99574.66;5032846;28;8861;-78
2022/10/14 03:24:27;;;;;;;;;36.20;31.80;;;;;16.72;60.26;99571.88;5033112;28;9031;-78
2022/10/14 03:27:15;;;;;;;;;28.40;28.20;;;;;16.82;59.56;99567.28;5034272;28;8971;-78
2022/10/14 03:29:46;;;;;;;;;30.60;29.80;;;;;16.83;59.47;99563.75;5049710;28;8856;-80
2022/10/14 03:32:20;;;;;;;;;48.00;38.00;;;;;16.80;59.21;99563.78;5033377;28;8841;-80
2022/10/14 03:35:10;;;;;;;;;34.50;32.25;;;;;16.97;58.75;99570.44;5049412;28;8976;-80
2022/10/14 03:37:43;;;;;;;;;30.80;29.40;;;;;16.74;59.47;99569.22;5050019;28;9658;-77
2022/10/14 03:40:13;;;;;;;;;30.00;29.60;;;;;16.76;59.42;99568.25;5048304;28;8838;-79
2022/10/14 03:42:42;;;;;;;;;33.00;29.40;;;;;16.76;59.71;99552.47;4999233;28;9000;-80
2022/10/14 03:45:11;;;;;;;;;36.50;33.00;;;;;16.66;59.56;99561.50;5031379;28;8938;-78
2022/10/14 03:47:41;;;;;;;;;25.75;24.75;;;;;16.65;59.84;99548.38;5047609;28;8857;-78
2022/10/14 03:50:10;;;;;;;;;30.00;29.00;;;;;16.71;59.38;99553.47;5031055;28;8894;-80
2022/10/14 03:52:46;;;;;;;;;23.60;23.60;;;;;16.74;59.10;99546.38;5030144;28;8866;-77
2022/10/14 03:55:38;;;;;;;;;38.25;28.50;;;;;16.71;59.32;99559.63;5031097;28;8866;-79
2022/10/14 03:58:10;;;;;;;;;28.50;26.50;;;;;16.74;58.95;99553.41;5030790;28;8866;-79
2022/10/14 04:00:44;;;;;;;;;32.00;29.50;;;;;16.75;59.19;99561.28;5031046;28;8893;-80
2022/10/14 04:03:24;;;;;;;;;34.25;33.25;;;;;16.83;58.92;99557.63;5029417;28;8881;-80
2022/10/14 04:05:56;;;;;;;;;35.00;29.25;;;;;16.85;58.82;99559.31;5019138;28;8953;-76
2022/10/14 04:08:29;;;;;;;;;33.75;32.00;;;;;16.89;58.83;99547.78;5021173;28;9572;-76
2022/10/14 04:11:02;;;;;;;;;33.50;31.50;;;;;16.85;58.36;99553.19;5026942;28;8867;-78
2022/10/14 04:13:36;;;;;;;;;42.25;36.50;;;;;16.97;58.34;99554.63;5017629;28;8884;-78
2022/10/14 04:16:07;;;;;;;;;39.00;33.25;;;;;16.76;58.74;99557.72;4993180;28;9028;-80
2022/10/14 04:18:58;;;;;;;;;37.25;33.25;;;;;16.84;58.70;99548.81;4971858;28;8890;-78
2022/10/14 04:21:27;;;;;;;;;23.00;20.75;;;;;16.83;58.62;99557.63;5027758;28;8848;-77
2022/10/14 04:23:57;;;;;;;;;33.50;30.00;;;;;16.88;58.57;99551.34;4995203;28;8945;-78
2022/10/14 04:26:38;;;;;;;;;35.75;33.00;;;;;16.93;58.28;99559.94;5023162;28;8856;-78
2022/10/14 04:29:13;;;;;;;;;27.75;23.50;;;;;16.99;57.92;99545.75;5030804;28;9006;-77
2022/10/14 04:31:52;;;;;;;;;33.75;30.75;;;;;17.06;57.89;99546.47;5015381;28;8875;-80
2022/10/14 04:34:21;;;;;;;;;26.25;25.00;;;;;17.02;57.75;99547.47;5034958;28;8873;-79
2022/10/14 04:36:52;;;;;;;;;33.25;31.25;;;;;17.00;58.02;99551.91;5049603;28;8926;-78
2022/10/14 04:39:30;;;;;;;;;32.50;29.00;;;;;17.03;57.43;99550.06;5048415;28;8868;-80
2022/10/14 04:41:59;;;;;;;;;36.50;33.00;;;;;16.98;57.57;99540.56;5031499;28;8861;-81
2022/10/14 04:44:29;;;;;;;;;34.50;31.00;;;;;16.85;57.91;99548.75;5027923;28;8867;-81
2022/10/14 04:47:00;;;;;;;;;34.25;30.25;;;;;16.90;57.61;99546.00;5012554;28;8885;-80
2022/10/14 04:49:29;;;;;;;;;30.50;29.75;;;;;16.89;57.59;99550.41;5012761;28;8945;-80
2022/10/14 04:52:11;;;;;;;;;32.50;31.00;;;;;16.86;57.69;99549.63;5011835;28;8877;-80
2022/10/14 04:55:13;;;;;;;;;34.25;32.00;;;;;16.89;57.51;99547.78;4972999;28;8944;-80
2022/10/14 04:57:43;;;;;;;;;34.75;31.50;;;;;16.98;57.26;99541.41;4991574;28;8916;-80
2022/10/14 05:00:15;;;;;;;;;35.50;31.25;;;;;16.98;57.17;99546.69;4987403;28;8870;-80
2022/10/14 05:02:53;;;;;;;;;36.25;32.25;;;;;16.93;57.49;99543.28;4972189;28;8834;-78
2022/10/14 05:05:28;;;;;;;;;35.00;32.75;;;;;17.02;56.77;99537.78;4972488;28;8870;-80
2022/10/14 05:07:59;;;;;;;;;36.25;32.50;;;;;17.05;56.76;99539.47;4956253;28;8924;-80
2022/10/14 05:10:37;;;;;;;;;40.75;34.25;;;;;17.01;56.94;99533.41;4974533;28;8888;-81
2022/10/14 05:13:10;;;;;;;;;33.00;30.25;;;;;17.03;57.32;99544.78;4975210;28;8869;-79
2022/10/14 05:15:51;;;;;;;;;32.25;30.75;;;;;17.10;56.91;99541.06;4963601;28;8879;-81
2022/10/14 05:18:22;;;;;;;;;32.50;31.25;;;;;17.09;57.07;99547.25;4989272;28;8985;-80
2022/10/14 05:20:59;;;;;;;;;36.00;33.00;;;;;17.10;57.07;99543.69;4974109;28;9756;-80
2022/10/14 05:23:41;;;;;;;;;34.75;31.75;;;;;17.28;56.31;99549.38;5001013;28;8924;-79
2022/10/14 05:26:11;;;;;;;;;35.00;32.00;;;;;17.32;55.86;99549.25;4993542;28;8871;-80
2022/10/14 05:28:42;;;;;;;;;37.50;32.25;;;;;17.40;56.06;99546.38;4992908;28;9014;-77
2022/10/14 05:31:11;;;;;;;;;27.75;27.00;;;;;17.33;55.92;99542.19;5025347;28;8869;-81
2022/10/14 05:33:49;;;;;;;;;33.25;26.75;;;;;17.38;56.31;99542.94;5032721;28;8849;-81
2022/10/14 05:36:18;;;;;;;;;34.75;31.50;;;;;17.49;55.59;99540.00;5015112;28;8853;-79
2022/10/14 05:38:49;;;;;;;;;33.00;30.25;;;;;17.49;55.93;99540.00;5049009;28;8873;-81
2022/10/14 05:41:23;;;;;;;;;40.00;33.00;;;;;17.58;55.46;99538.84;5048836;28;8853;-78
2022/10/14 05:43:52;;;;;;;;;33.25;30.00;;;;;17.62;55.30;99540.50;5048956;28;9591;-81
2022/10/14 05:46:21;;;;;;;;;33.75;31.75;;;;;17.71;54.85;99534.94;5051543;28;8867;-80
2022/10/14 05:48:56;;;;;;;;;32.00;29.25;;;;;17.71;55.13;99538.47;5049574;28;8879;-81
2022/10/14 05:51:25;;;;;;;;;31.75;30.00;;;;;17.86;54.44;99537.19;5038827;28;8856;-83
2022/10/14 05:54:02;;;;;;;;;35.50;29.75;;;;;17.87;54.38;99538.88;5027667;28;8875;-79
2022/10/14 05:56:32;;;;;;;;;30.75;29.00;;;;;17.98;54.50;99530.66;5032891;28;9055;-82
2022/10/14 05:59:01;;;;;;;;;34.50;29.50;;;;;17.91;54.26;99540.50;5033210;28;8879;-83
2022/10/14 06:01:30;;;;;;;;;33.50;28.75;;;;;18.03;54.14;99536.63;5048076;28;8838;-79
2022/10/14 06:03:59;;;;;;;;;29.33;27.67;;;;;18.22;53.68;99542.22;5032688;28;8889;-81
2022/10/14 06:06:28;;;;;;;;;32.75;31.50;;;;;18.34;53.18;99540.94;5015075;28;8864;-77
2022/10/14 06:08:57;;;;;;;;;27.25;25.75;;;;;18.39;52.81;99554.88;5048585;28;9629;-78
2022/10/14 06:11:25;;;;;;;;;30.00;26.75;;;;;18.28;52.95;99554.34;5031652;28;8860;-79
2022/10/14 06:13:55;;;;;;;;;30.50;26.25;;;;;18.41;52.46;99560.97;5031766;28;8967;-77
2022/10/14 06:16:24;;;;;;;;;28.00;26.00;;;;;18.58;51.93;99562.16;5031188;28;9598;-76
2022/10/14 06:18:53;;;;;;;;;29.25;29.00;;;;;18.72;51.86;99570.50;5015704;28;8866;-79
2022/10/14 06:21:23;;;;;;;;;24.00;22.25;;;;;18.66;51.46;99568.94;4983885;28;8973;-76
2022/10/14 06:23:52;;;;;;;;;29.25;29.00;;;;;18.92;51.38;99566.34;5048740;28;8853;-78
2022/10/14 06:26:20;;;;;;;;;31.00;27.25;;;;;18.98;50.66;99566.13;5049870;28;9049;-78
2022/10/14 06:28:49;;;;;;;;;27.40;25.60;;;;;19.16;50.29;99577.84;5016547;28;8857;-78
2022/10/14 06:31:19;;;;;;;;;27.00;25.60;;;;;19.23;50.12;99577.56;5032973;28;9607;-76
2022/10/14 06:33:48;;;;;;;;;26.50;25.75;;;;;19.08;50.01;99586.06;5051162;28;8845;-77
2022/10/14 06:36:16;;;;;;;;;24.75;24.75;;;;;19.25;50.04;99578.38;5049729;28;8863;-76
2022/10/14 06:38:45;;;;;;;;;29.50;25.50;;;;;19.41;49.62;99581.34;5033227;28;8861;-80
2022/10/14 06:41:13;;;;;;;;;28.00;25.80;;;;;19.35;49.23;99580.69;5011671;28;8864;-79
2022/10/14 06:43:42;;;;;;;;;21.60;19.80;;;;;19.54;48.82;99573.81;5031626;28;8844;-79
2022/10/14 06:46:11;;;;;;;;;23.20;22.40;;;;;19.59;48.45;99579.81;5046490;28;8892;-78
2022/10/14 06:48:40;;;;;;;;;26.75;23.75;;;;;19.70;48.41;99575.88;5050449;28;8857;-77
2022/10/14 06:51:11;;;;;;;;;25.40;23.00;;;;;19.79;47.89;99572.94;5031100;28;8971;-78
2022/10/14 06:53:40;;;;;;;;;25.80;23.60;;;;;19.85;47.63;99565.63;5016101;28;8889;-77
2022/10/14 06:56:11;;;;;;;;;26.00;24.00;;;;;19.84;47.60;99560.38;5048184;28;8932;-80
2022/10/14 06:58:39;;;;;;;;;26.60;24.80;;;;;19.84;47.43;99560.38;5047120;28;8870;-77
2022/10/14 07:01:08;;;;;;;;;25.40;23.00;;;;;19.80;47.35;99556.13;5038957;28;9696;-79
2022/10/14 07:03:38;;;;;;;;;27.25;24.25;;;;;19.82;47.12;99559.59;5055441;28;8870;-80
2022/10/14 07:06:09;;;;;;;;;20.00;18.75;;;;;19.97;46.94;99566.94;5051374;28;8860;-80
2022/10/14 07:08:38;;;;;;;;;24.50;23.75;;;;;20.00;46.84;99558.88;5037872;28;8870;-81
2022/10/14 07:11:07;;;;;;;;;25.00;24.00;;;;;20.12;46.77;99572.56;5048328;28;8885;-82
2022/10/14 07:13:36;;;;;;;;;25.50;24.00;;;;;20.21;46.60;99565.09;5031680;28;8884;-79
2022/10/14 07:16:05;;;;;;;;;28.50;27.25;;;;;20.32;46.37;99570.00;5030490;28;8909;-80
2022/10/14 07:18:34;;;;;;;;;26.75;26.50;;;;;20.48;46.47;99569.34;5025486;28;8884;-80
2022/10/14 07:21:03;;;;;;;;;26.25;24.75;;;;;20.58;46.13;99579.50;5013754;28;8869;-79
2022/10/14 07:23:33;;;;;;;;;29.50;24.50;;;;;20.61;46.38;99575.91;5051238;28;8873;-80
2022/10/14 07:26:02;;;;;;;;;25.25;25.25;;;;;20.72;45.84;99575.44;5050090;28;8992;-80
2022/10/14 07:28:32;;;;;;;;;29.50;26.25;;;;;20.88;45.57;99584.47;5049703;28;8861;-78
2022/10/14 07:31:04;;;;;;;;;30.50;28.25;;;;;21.00;45.03;99586.63;5049544;28;8866;-80
2022/10/14 07:33:34;;;;;;;;;33.50;28.75;;;;;20.95;44.87;99580.66;5048759;28;8911;-79
2022/10/14 07:36:04;;;;;;;;;23.50;21.75;;;;;21.05;45.09;99580.25;5050474;28;8880;-78
2022/10/14 07:38:34;;;;;;;;;22.75;21.75;;;;;21.10;45.06;99583.59;5048406;28;8879;-80
2022/10/14 07:41:05;;;;;;;;;27.75;26.75;;;;;21.23;44.82;99580.31;5049313;28;8895;-80
2022/10/14 07:43:35;;;;;;;;;19.75;17.50;;;;;21.27;44.68;99582.84;5048773;28;8973;-81
2022/10/14 07:46:06;;;;;;;;;25.25;24.75;;;;;21.36;45.07;99575.34;5013780;28;8885;-81
2022/10/14 07:48:36;;;;;;;;;26.25;22.75;;;;;21.37;44.25;99579.69;5049591;28;9695;-81
2022/10/14 07:51:24;;;;;;;;;27.80;25.40;;;;;21.55;44.34;99577.16;5038067;28;8950;-71
2022/10/14 07:53:55;;;;;;;;;26.75;25.00;;;;;21.67;44.37;99573.97;5040617;28;8971;-77
2022/10/14 07:56:24;;;;;;;;;28.50;26.25;;;;;21.71;44.03;99570.25;5064120;28;9575;-78
2022/10/14 07:58:54;;;;;;;;;25.50;23.75;;;;;21.73;43.46;99567.53;5047339;28;8875;-77
2022/10/14 08:01:23;;;;;;;;;26.50;25.25;;;;;21.80;43.15;99572.47;5048760;28;8885;-79
2022/10/14 08:03:52;;;;;;;;;27.50;27.50;;;;;21.77;42.77;99575.25;5073188;28;9539;-79
2022/10/14 08:06:21;;;;;;;;;30.50;27.75;;;;;21.82;42.81;99574.22;5054551;28;8873;-78
2022/10/14 08:08:50;;;;;;;;;21.25;21.25;;;;;21.83;42.60;99573.25;5048586;28;8857;-76
2022/10/14 08:11:21;;;;;;;;;25.50;24.25;;;;;21.59;43.50;99587.59;5032780;28;8871;-77
2022/10/14 08:13:50;;;;;;;;;29.25;28.50;;;;;21.88;43.23;99576.56;5047714;28;8864;-77
2022/10/14 08:16:21;;;;;;;;;28.50;27.25;;;;;21.84;43.47;99578.50;5048764;28;8881;-77
2022/10/14 08:18:52;;;;;;;;;28.75;28.25;;;;;21.96;43.32;99580.56;5049207;28;8878;-79
2022/10/14 08:21:21;;;;;;;;;27.75;27.50;;;;;22.06;43.24;99580.16;5014345;28;9003;-78
2022/10/14 08:23:50;;;;;;;;;34.25;29.25;;;;;21.87;42.99;99582.81;5046715;28;8882;-77
2022/10/14 08:26:22;;;;;;;;;28.50;27.75;;;;;21.91;43.57;99587.91;5030005;28;8949;-77
2022/10/14 08:28:51;;;;;;;;;32.75;30.00;;;;;22.06;42.58;99585.47;5037693;28;8878;-78
2022/10/14 08:31:20;;;;;;;;;27.75;27.25;;;;;21.80;42.89;99583.09;5030228;28;8878;-77
2022/10/14 08:33:49;;;;;;;;;34.25;28.50;;;;;21.87;42.89;99583.69;5045286;28;8862;-79
2022/10/14 08:36:19;;;;;;;;;31.75;29.00;;;;;21.87;42.94;99575.72;5029504;28;8890;-78
2022/10/14 08:38:48;;;;;;;;;28.75;27.50;;;;;22.05;42.89;99578.44;5045906;28;8893;-77
2022/10/14 08:41:26;;;;;;;;;24.00;24.00;;;;;22.34;42.43;99585.03;5045548;28;8887;-78
2022/10/14 08:44:09;;;;;;;;;26.50;24.25;;;;;22.46;41.46;99584.44;4997666;28;8858;-79
2022/10/14 08:46:42;;;;;;;;;28.75;28.75;;;;;22.55;40.67;99586.66;5029270;28;8877;-78
2022/10/14 08:49:25;;;;;;;;;30.40;25.00;;;;;22.71;40.67;99584.09;5047505;28;8857;-78
2022/10/14 08:52:00;;;;;;;;;24.20;21.40;;;;;22.82;39.61;99580.91;5048275;28;8882;-77
2022/10/14 08:54:36;;;;;;;;;27.80;26.20;;;;;22.82;39.48;99582.69;5048019;28;8897;-78
2022/10/14 08:57:14;;;;;;;;;26.40;26.20;;;;;23.02;39.59;99584.31;5047771;28;8853;-77
2022/10/14 08:59:42;;;;;;;;;27.40;25.60;;;;;23.00;40.13;99591.53;5046057;28;8872;-77
2022/10/14 09:02:21;;;;;;;;;27.00;25.75;;;;;22.99;40.04;99577.38;5046541;28;8865;-77
2022/10/14 09:04:50;;;;;;;;;27.20;25.00;;;;;23.19;39.85;99588.81;5032674;28;8863;-79
2022/10/14 09:07:19;;;;;;;;;27.50;26.00;;;;;23.36;39.67;99591.44;5046527;28;8877;-78
2022/10/14 09:09:52;;;;;;;;;24.20;23.40;;;;;23.60;39.56;99583.13;5044613;28;8915;-78
2022/10/14 09:12:28;;;;;;;;;23.60;23.60;;;;;23.52;39.57;99592.38;5044640;28;8874;-78
2022/10/14 09:15:07;;;;;;;;;26.25;25.75;;;;;23.55;39.32;99591.31;4995614;28;9631;-79
2022/10/14 09:17:42;;;;;;;;;24.00;22.20;;;;;23.53;39.13;99588.78;5044861;28;8882;-77
2022/10/14 09:20:18;;;;;;;;;23.40;23.20;;;;;23.39;38.69;99595.75;5028336;28;8992;-78
2022/10/14 09:22:57;;;;;;;;;24.60;23.00;;;;;23.53;38.53;99590.56;5028867;28;8869;-77
2022/10/14 09:25:25;;;;;;;;;15.40;14.40;;;;;23.36;37.26;99596.78;5044946;28;8892;-77
2022/10/14 09:27:56;;;;;;;;;22.00;19.60;;;;;23.73;36.91;99590.34;5044706;28;8866;-77
2022/10/14 09:30:24;;;;;;;;;17.40;16.60;;;;;23.88;36.05;99588.69;5033505;28;8847;-79
2022/10/14 09:32:54;;;;;;;;;21.00;20.00;;;;;23.52;37.28;99589.69;5048502;28;8878;-80
2022/10/14 09:35:27;;;;;;;;;24.80;24.60;;;;;23.67;37.16;99598.69;5030493;28;8874;-77
2022/10/14 09:37:56;;;;;;;;;25.00;22.00;;;;;23.66;37.68;99599.59;5032278;28;8928;-78
2022/10/14 09:40:30;;;;;;;;;20.80;19.80;;;;;23.49;37.87;99597.00;5048965;28;8870;-79
2022/10/14 09:43:04;;;;;;;;;27.20;22.00;;;;;23.32;38.03;99600.53;5031847;28;8865;-78
2022/10/14 09:45:49;;;;;;;;;21.20;20.40;;;;;23.51;37.44;99590.63;5032561;28;8989;-80
2022/10/14 09:48:31;;;;;;;;;18.60;18.60;;;;;23.32;37.29;99593.41;5048871;28;8977;-77
2022/10/14 09:51:02;;;;;;;;;18.20;17.20;;;;;23.38;36.85;99602.00;5041191;28;8884;-79
2022/10/14 09:53:36;;;;;;;;;19.60;19.20;;;;;23.59;36.39;99595.56;5050149;28;8888;-76
2022/10/14 09:56:07;;;;;;;;;21.80;15.80;;;;;23.53;37.22;99601.19;5040242;28;8877;-78
2022/10/14 09:58:42;;;;;;;;;19.00;19.00;;;;;23.59;36.04;99598.25;5051141;28;8937;-77
2022/10/14 10:01:16;;;;;;;;;16.00;16.00;;;;;23.61;35.37;99596.34;5051222;28;8864;-79
2022/10/14 10:03:45;;;;;;;;;20.20;19.00;;;;;23.65;35.22;99595.22;5050163;28;8849;-78
2022/10/14 10:06:17;;;;;;;;;18.80;18.20;;;;;23.82;35.70;99588.16;5052267;28;8881;-78
2022/10/14 10:08:57;;;;;;;;;20.20;19.80;;;;;23.69;35.60;99587.94;5034388;28;8873;-79
2022/10/14 10:11:32;;;;;;;;;19.40;19.40;;;;;23.87;35.94;99588.75;5051552;28;8857;-80
2022/10/14 10:14:17;;;;;;;;;26.75;25.00;;;;;23.91;36.78;99588.53;5048542;28;8830;-80
2022/10/14 10:16:45;;;;;;;;;23.00;23.00;;;;;23.78;37.10;99589.22;5036635;28;8856;-78
2022/10/14 10:19:26;;;;;;;;;23.20;21.40;;;;;23.66;36.71;99588.09;5050280;28;8861;-79
2022/10/14 10:22:15;;;;;;;;;23.00;21.40;;;;;23.64;37.10;99593.50;5049321;28;8867;-78
2022/10/14 10:24:45;;;;;;;;;21.20;19.40;;;;;23.40;36.93;99593.00;5050159;28;8865;-78
2022/10/14 10:27:20;;;;;;;;;26.00;21.60;;;;;23.27;36.73;99587.47;5049700;28;8880;-79
2022/10/14 10:29:51;;;;;;;;;26.40;22.40;;;;;23.54;36.77;99584.31;5048352;28;8864;-78
2022/10/14 10:32:29;;;;;;;;;24.80;24.80;;;;;23.30;36.63;99581.97;5050869;28;8857;-79
2022/10/14 10:35:10;;;;;;;;;22.40;22.40;;;;;23.53;36.57;99580.78;5050127;28;8883;-79
2022/10/14 10:37:50;;;;;;;;;22.80;20.60;;;;;23.60;35.94;99575.13;5049119;28;8888;-78
2022/10/14 10:40:31;;;;;;;;;22.00;19.60;;;;;23.60;36.16;99572.47;5034442;28;8865;-81
2022/10/14 10:43:24;;;;;;;;;24.80;20.80;;;;;23.56;35.96;99574.44;5015070;28;8869;-80
2022/10/14 10:46:09;;;;;;;;;22.80;20.40;;;;;23.23;35.95;99580.63;5008507;28;8858;-79
2022/10/14 10:48:45;;;;;;;;;18.80;18.80;;;;;23.15;36.37;99572.16;4991933;28;8983;-79
2022/10/14 10:51:22;;;;;;;;;22.20;20.20;;;;;23.03;36.80;99575.44;4988739;28;8872;-77
2022/10/14 10:54:08;;;;;;;;;19.80;18.20;;;;;23.43;36.67;99570.72;4991825;28;8894;-78
2022/10/14 10:56:45;;;;;;;;;21.60;19.20;;;;;22.93;36.77;99562.59;4991385;28;8870;-80
2022/10/14 10:59:30;;;;;;;;;8.00;7.40;;;;;23.25;36.35;99556.56;4991174;28;8959;-78
2022/10/14 11:02:22;;;;;;;;;20.60;20.00;;;;;23.55;36.01;99552.28;4991163;28;8947;-79
2022/10/14 11:05:04;;;;;;;;;21.00;18.60;;;;;23.75;35.73;99559.16;4962532;28;9714;-79
2022/10/14 11:13:36;;;;;;;;;20.40;20.40;;;;;24.02;35.67;99547.94;4988146;28;9022;-80
2022/10/14 11:16:10;;;;;;;;;23.40;22.80;;;;;23.93;35.78;99545.81;4988140;28;8968;-78
2022/10/14 11:18:48;;;;;;;;;21.40;20.40;;;;;24.17;35.54;99548.03;4946102;28;8902;-78
2022/10/14 11:21:25;;;;;;;;;25.00;22.80;;;;;23.78;35.59;99539.50;4954498;28;8883;-78
2022/10/14 11:24:05;;;;;;;;;21.40;20.40;;;;;23.93;35.23;99545.81;5005353;28;8855;-80
2022/10/14 11:26:46;;;;;;;;;22.00;20.80;;;;;24.25;34.95;99536.00;4980397;28;8868;-79
2022/10/14 11:29:34;;;;;;;;;20.20;20.00;;;;;24.47;34.79;99532.09;5007799;28;8905;-79
2022/10/14 11:32:14;;;;;;;;;22.00;21.40;;;;;24.44;34.63;99533.16;4991159;28;8879;-80
2022/10/14 11:34:57;;;;;;;;;19.80;18.20;;;;;24.64;34.53;99539.16;5008313;28;8902;-78
2022/10/14 11:37:33;;;;;;;;;26.60;22.60;;;;;24.58;34.35;99529.69;5007552;28;8915;-78
2022/10/14 11:40:09;;;;;;;;;22.60;22.60;;;;;24.46;34.67;99525.91;5008263;28;8928;-79
2022/10/14 11:42:54;;;;;;;;;22.00;20.20;;;;;24.51;34.61;99522.97;5026079;28;8868;-77
2022/10/14 11:45:41;;;;;;;;;22.40;20.40;;;;;24.48;34.52;99518.69;5028176;28;8856;-79
2022/10/14 11:48:23;;;;;;;;;29.80;23.20;;;;;24.52;34.51;99527.41;4997046;28;8856;-80
2022/10/14 11:50:57;;;;;;;;;23.75;23.75;;;;;24.59;34.57;99515.41;5065072;28;8859;-78
2022/10/14 11:53:43;;;;;;;;;21.40;21.00;;;;;24.47;34.96;99521.44;5007620;28;8905;-78
2022/10/14 11:56:28;;;;;;;;;23.40;23.40;;;;;24.54;35.02;99517.50;4990946;28;8937;-79
2022/10/14 11:59:01;;;;;;;;;22.00;19.00;;;;;24.60;35.14;99513.63;5006675;28;8867;-79
2022/10/14 12:01:33;;;;;;;;;23.80;22.00;;;;;24.69;34.64;99511.25;5007086;28;8927;-78